CheckWX is a tool to help pilots better visualize weather data.  It is not intended as a substitute for an official pre-flight weather briefing.

12:08:26 UTC

KGNV METAR
Gainesville Regional Airport
Gainesville, Florida, USA
Current

1 hour ago

KGNV 261053Z 31004KT 9SM CLR 23/22 A3013 RMK AO2 SLP197 T02330217
Observed
Jun-26 @ 10:53 UTC
Wind
  • 310° at 4 KTS
Visibility
9 SM
Flight Rules
VFR
Cloud Levels
  • Clear skies
Temperature
23°C / 73°F
Dewpoint
22°C / 72°F
Humidity
94%
Altimeter
30.13" Hg
Pressure
1020.32 hPa
Previous

2 hours ago

KGNV 260953Z AUTO 00000KT 10SM CLR 23/22 A3011 RMK AO2 SLP191 T02330217
Observed
Jun-26 @ 09:53 UTC
Visibility
10 SM
Flight Rules
VFR
Cloud Levels
  • Clear skies
Temperature
23°C / 73°F
Dewpoint
22°C / 72°F
Humidity
94%
Altimeter
30.11" Hg
Pressure
1019.62 hPa
Previous

3 hours ago

KGNV 260853Z AUTO 31005KT 10SM CLR 24/22 A3010 RMK AO2 SLP187 T02440217 55003
Observed
Jun-26 @ 08:53 UTC
Wind
  • 310° at 5 KTS
Visibility
10 SM
Flight Rules
VFR
Cloud Levels
  • Clear skies
Temperature
24°C / 75°F
Dewpoint
22°C / 72°F
Humidity
89%
Altimeter
30.1" Hg
Pressure
1019.32 hPa